sensor_id;sensor_type;location;lat;lon;timestamp;P1;durP1;ratioP1;P2;durP2;ratioP2
78148;SDS011;67396;42.664;23.382;2023-04-10T00:01:39;15.82;;;8.55;;
78148;SDS011;67396;42.664;23.382;2023-04-10T00:04:04;12.45;;;6.88;;
78148;SDS011;67396;42.664;23.382;2023-04-10T00:06:30;13.45;;;6.53;;
78148;SDS011;67396;42.664;23.382;2023-04-10T00:08:57;13.82;;;7.55;;
78148;SDS011;67396;42.664;23.382;2023-04-10T00:11:23;13.63;;;6.68;;
78148;SDS011;67396;42.664;23.382;2023-04-10T00:13:49;15.27;;;6.63;;
78148;SDS011;67396;42.664;23.382;2023-04-10T00:16:15;11.73;;;5.88;;
78148;SDS011;67396;42.664;23.382;2023-04-10T00:18:40;12.40;;;6.25;;
78148;SDS011;67396;42.664;23.382;2023-04-10T00:21:06;11.63;;;5.55;;
78148;SDS011;67396;42.664;23.382;2023-04-10T00:23:32;11.85;;;5.72;;
78148;SDS011;67396;42.664;23.382;2023-04-10T00:25:58;9.13;;;5.38;;
78148;SDS011;67396;42.664;23.382;2023-04-10T00:28:25;9.85;;;5.22;;
78148;SDS011;67396;42.664;23.382;2023-04-10T00:30:50;9.45;;;4.82;;
78148;SDS011;67396;42.664;23.382;2023-04-10T00:33:16;9.32;;;4.63;;
78148;SDS011;67396;42.664;23.382;2023-04-10T00:35:41;8.80;;;4.78;;
78148;SDS011;67396;42.664;23.382;2023-04-10T00:38:06;8.88;;;4.40;;
78148;SDS011;67396;42.664;23.382;2023-04-10T00:40:32;9.27;;;4.32;;
78148;SDS011;67396;42.664;23.382;2023-04-10T00:42:57;5.55;;;3.42;;
78148;SDS011;67396;42.664;23.382;2023-04-10T00:45:23;11.70;;;5.43;;
78148;SDS011;67396;42.664;23.382;2023-04-10T00:47:49;7.32;;;4.32;;
78148;SDS011;67396;42.664;23.382;2023-04-10T00:50:15;8.85;;;4.78;;
78148;SDS011;67396;42.664;23.382;2023-04-10T00:52:41;7.00;;;4.20;;
78148;SDS011;67396;42.664;23.382;2023-04-10T00:55:07;9.82;;;4.88;;
78148;SDS011;67396;42.664;23.382;2023-04-10T00:57:33;8.43;;;4.57;;
78148;SDS011;67396;42.664;23.382;2023-04-10T00:59:59;9.90;;;5.78;;
78148;SDS011;67396;42.664;23.382;2023-04-10T01:02:25;12.50;;;5.80;;
78148;SDS011;67396;42.664;23.382;2023-04-10T01:04:51;10.75;;;5.55;;
78148;SDS011;67396;42.664;23.382;2023-04-10T01:10:19;11.68;;;5.93;;
78148;SDS011;67396;42.664;23.382;2023-04-10T01:13:06;13.32;;;7.03;;
78148;SDS011;67396;42.664;23.382;2023-04-10T01:15:51;15.63;;;6.40;;
78148;SDS011;67396;42.664;23.382;2023-04-10T01:18:38;12.32;;;6.65;;
78148;SDS011;67396;42.664;23.382;2023-04-10T01:21:08;15.73;;;7.70;;
78148;SDS011;67396;42.664;23.382;2023-04-10T01:26:31;14.50;;;6.78;;
78148;SDS011;67396;42.664;23.382;2023-04-10T01:29:07;15.85;;;7.72;;
78148;SDS011;67396;42.664;23.382;2023-04-10T01:32:10;16.55;;;7.70;;
78148;SDS011;67396;42.664;23.382;2023-04-10T01:34:46;14.43;;;6.75;;
78148;SDS011;67396;42.664;23.382;2023-04-10T01:37:19;14.43;;;6.82;;
78148;SDS011;67396;42.664;23.382;2023-04-10T01:39:59;13.65;;;7.13;;
78148;SDS011;67396;42.664;23.382;2023-04-10T01:42:27;13.95;;;6.63;;
78148;SDS011;67396;42.664;23.382;2023-04-10T01:44:56;17.40;;;7.18;;
78148;SDS011;67396;42.664;23.382;2023-04-10T01:47:23;14.88;;;7.05;;
78148;SDS011;67396;42.664;23.382;2023-04-10T01:49:50;15.02;;;7.35;;
78148;SDS011;67396;42.664;23.382;2023-04-10T01:52:18;11.20;;;6.10;;
78148;SDS011;67396;42.664;23.382;2023-04-10T01:54:46;10.32;;;5.97;;
78148;SDS011;67396;42.664;23.382;2023-04-10T01:57:13;11.75;;;6.70;;
78148;SDS011;67396;42.664;23.382;2023-04-10T01:59:39;11.82;;;6.30;;
78148;SDS011;67396;42.664;23.382;2023-04-10T02:02:05;12.55;;;5.70;;
78148;SDS011;67396;42.664;23.382;2023-04-10T02:04:32;15.35;;;6.53;;
78148;SDS011;67396;42.664;23.382;2023-04-10T02:07:01;11.98;;;5.50;;
78148;SDS011;67396;42.664;23.382;2023-04-10T02:09:51;11.32;;;6.57;;
78148;SDS011;67396;42.664;23.382;2023-04-10T02:12:25;12.82;;;6.25;;
78148;SDS011;67396;42.664;23.382;2023-04-10T02:14:55;11.38;;;6.00;;
78148;SDS011;67396;42.664;23.382;2023-04-10T02:17:27;11.93;;;6.20;;
78148;SDS011;67396;42.664;23.382;2023-04-10T02:19:54;12.07;;;5.65;;
78148;SDS011;67396;42.664;23.382;2023-04-10T02:22:22;11.05;;;6.43;;
78148;SDS011;67396;42.664;23.382;2023-04-10T02:24:49;12.00;;;5.68;;
78148;SDS011;67396;42.664;23.382;2023-04-10T02:27:25;9.80;;;4.93;;
78148;SDS011;67396;42.664;23.382;2023-04-10T02:29:59;9.15;;;5.20;;
78148;SDS011;67396;42.664;23.382;2023-04-10T02:32:25;9.02;;;5.13;;
78148;SDS011;67396;42.664;23.382;2023-04-10T02:34:54;11.02;;;5.53;;
78148;SDS011;67396;42.664;23.382;2023-04-10T02:37:20;13.23;;;5.90;;
78148;SDS011;67396;42.664;23.382;2023-04-10T02:39:46;10.48;;;5.20;;
78148;SDS011;67396;42.664;23.382;2023-04-10T02:42:12;11.30;;;5.30;;
78148;SDS011;67396;42.664;23.382;2023-04-10T02:44:37;11.07;;;5.47;;
78148;SDS011;67396;42.664;23.382;2023-04-10T02:47:05;12.18;;;5.53;;
78148;SDS011;67396;42.664;23.382;2023-04-10T02:49:31;9.60;;;5.32;;
78148;SDS011;67396;42.664;23.382;2023-04-10T02:51:58;10.40;;;5.57;;
78148;SDS011;67396;42.664;23.382;2023-04-10T02:54:24;10.40;;;5.60;;
78148;SDS011;67396;42.664;23.382;2023-04-10T02:56:50;11.95;;;7.00;;
78148;SDS011;67396;42.664;23.382;2023-04-10T02:59:15;9.35;;;5.75;;
78148;SDS011;67396;42.664;23.382;2023-04-10T03:01:41;12.27;;;6.57;;
78148;SDS011;67396;42.664;23.382;2023-04-10T03:04:07;10.80;;;6.45;;
78148;SDS011;67396;42.664;23.382;2023-04-10T03:06:32;16.42;;;7.30;;
78148;SDS011;67396;42.664;23.382;2023-04-10T03:08:58;17.10;;;7.72;;
78148;SDS011;67396;42.664;23.382;2023-04-10T03:11:23;15.77;;;7.85;;
78148;SDS011;67396;42.664;23.382;2023-04-10T03:13:49;12.50;;;7.38;;
78148;SDS011;67396;42.664;23.382;2023-04-10T03:16:15;13.48;;;6.80;;
78148;SDS011;67396;42.664;23.382;2023-04-10T03:18:42;15.32;;;7.38;;
78148;SDS011;67396;42.664;23.382;2023-04-10T03:21:07;12.07;;;6.53;;
78148;SDS011;67396;42.664;23.382;2023-04-10T03:23:33;14.60;;;8.07;;
78148;SDS011;67396;42.664;23.382;2023-04-10T03:25:58;11.80;;;5.80;;
78148;SDS011;67396;42.664;23.382;2023-04-10T03:28:24;14.38;;;6.53;;
78148;SDS011;67396;42.664;23.382;2023-04-10T03:30:50;12.40;;;5.57;;
78148;SDS011;67396;42.664;23.382;2023-04-10T03:33:15;11.57;;;6.28;;
78148;SDS011;67396;42.664;23.382;2023-04-10T03:35:41;14.02;;;7.15;;
78148;SDS011;67396;42.664;23.382;2023-04-10T03:38:07;11.00;;;5.53;;
78148;SDS011;67396;42.664;23.382;2023-04-10T03:40:33;10.85;;;6.35;;
78148;SDS011;67396;42.664;23.382;2023-04-10T03:42:58;12.35;;;6.07;;
78148;SDS011;67396;42.664;23.382;2023-04-10T03:45:24;12.85;;;6.18;;
78148;SDS011;67396;42.664;23.382;2023-04-10T03:47:50;15.00;;;5.93;;
78148;SDS011;67396;42.664;23.382;2023-04-10T03:50:16;15.93;;;6.72;;
78148;SDS011;67396;42.664;23.382;2023-04-10T03:52:42;17.95;;;7.05;;
78148;SDS011;67396;42.664;23.382;2023-04-10T03:55:07;17.23;;;7.55;;
78148;SDS011;67396;42.664;23.382;2023-04-10T03:57:33;16.30;;;6.80;;
78148;SDS011;67396;42.664;23.382;2023-04-10T03:59:58;17.60;;;7.57;;
78148;SDS011;67396;42.664;23.382;2023-04-10T04:02:24;15.98;;;8.35;;
78148;SDS011;67396;42.664;23.382;2023-04-10T04:04:49;20.20;;;10.07;;
78148;SDS011;67396;42.664;23.382;2023-04-10T04:07:14;19.30;;;9.10;;
78148;SDS011;67396;42.664;23.382;2023-04-10T04:09:40;25.08;;;9.02;;
78148;SDS011;67396;42.664;23.382;2023-04-10T04:12:06;12.18;;;6.85;;
78148;SDS011;67396;42.664;23.382;2023-04-10T04:14:31;16.98;;;7.50;;
78148;SDS011;67396;42.664;23.382;2023-04-10T04:16:57;15.38;;;7.18;;
78148;SDS011;67396;42.664;23.382;2023-04-10T04:19:22;16.55;;;7.13;;
78148;SDS011;67396;42.664;23.382;2023-04-10T04:21:48;13.07;;;7.10;;
78148;SDS011;67396;42.664;23.382;2023-04-10T04:24:13;15.25;;;6.90;;
78148;SDS011;67396;42.664;23.382;2023-04-10T04:26:38;17.50;;;7.60;;
78148;SDS011;67396;42.664;23.382;2023-04-10T04:29:04;13.70;;;6.97;;
78148;SDS011;67396;42.664;23.382;2023-04-10T04:31:30;16.92;;;8.35;;
78148;SDS011;67396;42.664;23.382;2023-04-10T04:33:59;19.80;;;9.10;;
78148;SDS011;67396;42.664;23.382;2023-04-10T04:36:25;17.20;;;8.80;;
78148;SDS011;67396;42.664;23.382;2023-04-10T04:38:51;22.30;;;10.82;;
78148;SDS011;67396;42.664;23.382;2023-04-10T04:41:17;19.85;;;9.70;;
78148;SDS011;67396;42.664;23.382;2023-04-10T04:43:43;22.65;;;10.82;;
78148;SDS011;67396;42.664;23.382;2023-04-10T04:46:09;21.48;;;10.30;;
78148;SDS011;67396;42.664;23.382;2023-04-10T04:48:35;25.73;;;10.32;;
78148;SDS011;67396;42.664;23.382;2023-04-10T04:51:00;20.10;;;9.90;;
78148;SDS011;67396;42.664;23.382;2023-04-10T04:53:26;17.73;;;11.15;;
78148;SDS011;67396;42.664;23.382;2023-04-10T04:55:51;22.02;;;10.80;;
78148;SDS011;67396;42.664;23.382;2023-04-10T04:58:17;23.77;;;11.32;;
78148;SDS011;67396;42.664;23.382;2023-04-10T05:00:42;21.40;;;10.13;;
78148;SDS011;67396;42.664;23.382;2023-04-10T05:03:08;22.55;;;10.95;;
78148;SDS011;67396;42.664;23.382;2023-04-10T05:05:33;26.52;;;12.23;;
78148;SDS011;67396;42.664;23.382;2023-04-10T05:07:59;23.67;;;9.60;;
78148;SDS011;67396;42.664;23.382;2023-04-10T05:10:24;19.15;;;9.73;;
78148;SDS011;67396;42.664;23.382;2023-04-10T05:12:50;22.88;;;11.20;;
78148;SDS011;67396;42.664;23.382;2023-04-10T05:15:19;17.42;;;8.27;;
78148;SDS011;67396;42.664;23.382;2023-04-10T05:17:45;18.52;;;9.50;;
78148;SDS011;67396;42.664;23.382;2023-04-10T05:20:10;19.55;;;9.68;;
78148;SDS011;67396;42.664;23.382;2023-04-10T05:22:36;22.75;;;11.07;;
78148;SDS011;67396;42.664;23.382;2023-04-10T05:25:01;26.65;;;10.40;;
78148;SDS011;67396;42.664;23.382;2023-04-10T05:27:27;20.92;;;10.82;;
78148;SDS011;67396;42.664;23.382;2023-04-10T05:29:52;17.83;;;10.13;;
78148;SDS011;67396;42.664;23.382;2023-04-10T05:32:18;30.23;;;13.45;;
78148;SDS011;67396;42.664;23.382;2023-04-10T05:34:43;19.35;;;9.75;;
78148;SDS011;67396;42.664;23.382;2023-04-10T05:37:09;27.63;;;11.25;;
78148;SDS011;67396;42.664;23.382;2023-04-10T05:39:36;20.95;;;11.27;;
78148;SDS011;67396;42.664;23.382;2023-04-10T05:42:02;21.90;;;11.10;;
78148;SDS011;67396;42.664;23.382;2023-04-10T05:44:28;25.85;;;11.27;;
78148;SDS011;67396;42.664;23.382;2023-04-10T05:46:53;24.10;;;11.55;;
78148;SDS011;67396;42.664;23.382;2023-04-10T05:49:18;18.95;;;9.73;;
78148;SDS011;67396;42.664;23.382;2023-04-10T05:51:44;20.42;;;10.32;;
78148;SDS011;67396;42.664;23.382;2023-04-10T05:54:14;20.45;;;11.35;;
78148;SDS011;67396;42.664;23.382;2023-04-10T05:56:42;24.27;;;10.48;;
78148;SDS011;67396;42.664;23.382;2023-04-10T05:59:08;20.33;;;10.93;;
78148;SDS011;67396;42.664;23.382;2023-04-10T06:01:33;26.02;;;11.05;;
78148;SDS011;67396;42.664;23.382;2023-04-10T06:03:58;18.90;;;10.23;;
78148;SDS011;67396;42.664;23.382;2023-04-10T06:06:24;17.42;;;9.07;;
78148;SDS011;67396;42.664;23.382;2023-04-10T06:08:50;27.45;;;11.45;;
78148;SDS011;67396;42.664;23.382;2023-04-10T06:11:15;21.08;;;10.52;;
78148;SDS011;67396;42.664;23.382;2023-04-10T06:13:41;23.05;;;10.95;;
78148;SDS011;67396;42.664;23.382;2023-04-10T06:16:06;21.05;;;9.68;;
78148;SDS011;67396;42.664;23.382;2023-04-10T06:18:32;19.55;;;10.38;;
78148;SDS011;67396;42.664;23.382;2023-04-10T06:20:58;18.08;;;9.57;;
78148;SDS011;67396;42.664;23.382;2023-04-10T06:23:26;16.60;;;10.38;;
78148;SDS011;67396;42.664;23.382;2023-04-10T06:25:52;20.08;;;10.18;;
78148;SDS011;67396;42.664;23.382;2023-04-10T06:28:18;19.05;;;10.45;;
78148;SDS011;67396;42.664;23.382;2023-04-10T06:33:52;26.90;;;11.18;;
78148;SDS011;67396;42.664;23.382;2023-04-10T06:36:28;20.65;;;10.35;;
78148;SDS011;67396;42.664;23.382;2023-04-10T06:42:03;26.15;;;10.15;;
78148;SDS011;67396;42.664;23.382;2023-04-10T06:44:35;24.35;;;10.35;;
78148;SDS011;67396;42.664;23.382;2023-04-10T06:47:08;24.65;;;11.05;;
78148;SDS011;67396;42.664;23.382;2023-04-10T06:49:41;20.35;;;9.90;;
78148;SDS011;67396;42.664;23.382;2023-04-10T06:52:15;20.15;;;10.60;;
78148;SDS011;67396;42.664;23.382;2023-04-10T06:54:51;23.38;;;10.65;;
78148;SDS011;67396;42.664;23.382;2023-04-10T06:57:20;17.35;;;9.13;;
78148;SDS011;67396;42.664;23.382;2023-04-10T06:59:54;26.02;;;9.90;;
78148;SDS011;67396;42.664;23.382;2023-04-10T07:02:25;18.13;;;10.10;;
78148;SDS011;67396;42.664;23.382;2023-04-10T07:04:55;27.13;;;10.23;;
78148;SDS011;67396;42.664;23.382;2023-04-10T07:07:24;19.20;;;9.63;;
78148;SDS011;67396;42.664;23.382;2023-04-10T07:09:49;28.50;;;11.80;;
78148;SDS011;67396;42.664;23.382;2023-04-10T07:12:15;20.90;;;10.27;;
78148;SDS011;67396;42.664;23.382;2023-04-10T07:14:51;23.35;;;11.52;;
78148;SDS011;67396;42.664;23.382;2023-04-10T07:17:17;21.40;;;10.30;;
78148;SDS011;67396;42.664;23.382;2023-04-10T07:19:55;24.27;;;10.50;;
78148;SDS011;67396;42.664;23.382;2023-04-10T07:22:21;28.75;;;11.60;;
78148;SDS011;67396;42.664;23.382;2023-04-10T07:24:46;25.35;;;11.85;;
78148;SDS011;67396;42.664;23.382;2023-04-10T07:27:15;23.42;;;10.98;;
78148;SDS011;67396;42.664;23.382;2023-04-10T07:29:41;27.58;;;12.00;;
78148;SDS011;67396;42.664;23.382;2023-04-10T07:32:09;22.08;;;12.23;;
78148;SDS011;67396;42.664;23.382;2023-04-10T07:34:53;25.60;;;11.40;;
78148;SDS011;67396;42.664;23.382;2023-04-10T07:37:22;24.85;;;11.75;;
78148;SDS011;67396;42.664;23.382;2023-04-10T07:39:50;20.58;;;10.23;;
78148;SDS011;67396;42.664;23.382;2023-04-10T07:42:18;21.20;;;9.93;;
78148;SDS011;67396;42.664;23.382;2023-04-10T07:44:44;24.27;;;11.70;;
78148;SDS011;67396;42.664;23.382;2023-04-10T07:47:09;27.02;;;12.68;;
78148;SDS011;67396;42.664;23.382;2023-04-10T07:49:41;26.75;;;12.70;;
78148;SDS011;67396;42.664;23.382;2023-04-10T07:52:06;24.92;;;12.05;;
78148;SDS011;67396;42.664;23.382;2023-04-10T07:54:32;25.13;;;11.80;;
78148;SDS011;67396;42.664;23.382;2023-04-10T07:56:58;27.70;;;13.18;;
78148;SDS011;67396;42.664;23.382;2023-04-10T07:59:23;23.20;;;12.07;;
78148;SDS011;67396;42.664;23.382;2023-04-10T08:01:49;26.92;;;12.13;;
78148;SDS011;67396;42.664;23.382;2023-04-10T08:04:15;27.75;;;13.23;;
78148;SDS011;67396;42.664;23.382;2023-04-10T08:06:40;29.30;;;12.00;;
78148;SDS011;67396;42.664;23.382;2023-04-10T08:09:06;25.00;;;11.75;;
78148;SDS011;67396;42.664;23.382;2023-04-10T08:11:32;27.98;;;12.40;;
78148;SDS011;67396;42.664;23.382;2023-04-10T08:16:43;29.45;;;13.32;;
78148;SDS011;67396;42.664;23.382;2023-04-10T08:19:08;27.55;;;13.38;;
78148;SDS011;67396;42.664;23.382;2023-04-10T08:21:34;27.85;;;12.63;;
78148;SDS011;67396;42.664;23.382;2023-04-10T08:24:00;24.83;;;12.15;;
78148;SDS011;67396;42.664;23.382;2023-04-10T08:26:30;27.17;;;12.50;;
78148;SDS011;67396;42.664;23.382;2023-04-10T08:28:56;28.50;;;13.48;;
78148;SDS011;67396;42.664;23.382;2023-04-10T08:31:23;28.48;;;12.93;;
78148;SDS011;67396;42.664;23.382;2023-04-10T08:33:49;28.77;;;14.00;;
78148;SDS011;67396;42.664;23.382;2023-04-10T08:36:15;25.77;;;12.98;;
78148;SDS011;67396;42.664;23.382;2023-04-10T08:38:41;30.45;;;12.98;;
78148;SDS011;67396;42.664;23.382;2023-04-10T08:41:14;23.00;;;11.63;;
78148;SDS011;67396;42.664;23.382;2023-04-10T08:43:41;26.67;;;12.68;;
78148;SDS011;67396;42.664;23.382;2023-04-10T08:46:07;25.40;;;12.27;;
78148;SDS011;67396;42.664;23.382;2023-04-10T08:49:06;27.45;;;12.55;;
78148;SDS011;67396;42.664;23.382;2023-04-10T08:51:31;22.20;;;11.43;;
78148;SDS011;67396;42.664;23.382;2023-04-10T08:54:05;27.98;;;12.65;;
78148;SDS011;67396;42.664;23.382;2023-04-10T08:56:35;22.05;;;11.90;;
78148;SDS011;67396;42.664;23.382;2023-04-10T08:59:03;23.23;;;10.98;;
78148;SDS011;67396;42.664;23.382;2023-04-10T09:01:29;19.90;;;9.77;;
78148;SDS011;67396;42.664;23.382;2023-04-10T09:03:55;32.35;;;12.52;;
78148;SDS011;67396;42.664;23.382;2023-04-10T09:06:21;22.60;;;10.50;;
78148;SDS011;67396;42.664;23.382;2023-04-10T09:08:46;22.08;;;11.15;;
78148;SDS011;67396;42.664;23.382;2023-04-10T09:11:11;21.85;;;11.02;;
78148;SDS011;67396;42.664;23.382;2023-04-10T09:13:43;18.60;;;8.73;;
78148;SDS011;67396;42.664;23.382;2023-04-10T09:16:09;19.70;;;9.77;;
78148;SDS011;67396;42.664;23.382;2023-04-10T09:18:48;20.77;;;10.13;;
78148;SDS011;67396;42.664;23.382;2023-04-10T09:21:19;24.60;;;11.82;;
78148;SDS011;67396;42.664;23.382;2023-04-10T09:23:48;21.55;;;11.30;;
78148;SDS011;67396;42.664;23.382;2023-04-10T09:26:28;19.73;;;11.25;;
78148;SDS011;67396;42.664;23.382;2023-04-10T09:34:32;23.08;;;10.90;;
78148;SDS011;67396;42.664;23.382;2023-04-10T09:36:57;21.85;;;11.75;;
78148;SDS011;67396;42.664;23.382;2023-04-10T09:39:34;28.38;;;11.70;;
78148;SDS011;67396;42.664;23.382;2023-04-10T09:42:02;28.92;;;12.13;;
78148;SDS011;67396;42.664;23.382;2023-04-10T09:44:35;24.98;;;10.88;;
78148;SDS011;67396;42.664;23.382;2023-04-10T09:47:18;20.92;;;10.48;;
78148;SDS011;67396;42.664;23.382;2023-04-10T09:52:19;18.13;;;9.75;;
78148;SDS011;67396;42.664;23.382;2023-04-10T09:54:46;17.75;;;9.35;;
78148;SDS011;67396;42.664;23.382;2023-04-10T09:57:16;17.85;;;9.82;;
78148;SDS011;67396;42.664;23.382;2023-04-10T09:59:47;14.40;;;7.25;;
78148;SDS011;67396;42.664;23.382;2023-04-10T10:02:17;20.25;;;11.32;;
78148;SDS011;67396;42.664;23.382;2023-04-10T10:04:43;14.00;;;6.50;;
78148;SDS011;67396;42.664;23.382;2023-04-10T10:07:10;17.05;;;9.27;;
78148;SDS011;67396;42.664;23.382;2023-04-10T10:09:36;15.75;;;8.65;;
78148;SDS011;67396;42.664;23.382;2023-04-10T10:12:02;13.70;;;8.10;;
78148;SDS011;67396;42.664;23.382;2023-04-10T10:14:29;16.60;;;9.02;;
78148;SDS011;67396;42.664;23.382;2023-04-10T10:17:04;12.60;;;7.47;;
78148;SDS011;67396;42.664;23.382;2023-04-10T10:19:48;22.42;;;9.10;;
78148;SDS011;67396;42.664;23.382;2023-04-10T10:22:21;16.13;;;8.52;;
78148;SDS011;67396;42.664;23.382;2023-04-10T10:24:49;18.88;;;9.40;;
78148;SDS011;67396;42.664;23.382;2023-04-10T10:27:20;20.50;;;10.00;;
78148;SDS011;67396;42.664;23.382;2023-04-10T10:29:51;19.42;;;10.15;;
78148;SDS011;67396;42.664;23.382;2023-04-10T10:32:17;17.63;;;9.45;;
78148;SDS011;67396;42.664;23.382;2023-04-10T10:34:47;18.73;;;9.93;;
78148;SDS011;67396;42.664;23.382;2023-04-10T10:37:17;21.50;;;10.68;;
78148;SDS011;67396;42.664;23.382;2023-04-10T10:40:00;19.70;;;8.90;;
78148;SDS011;67396;42.664;23.382;2023-04-10T10:42:39;19.15;;;10.23;;
78148;SDS011;67396;42.664;23.382;2023-04-10T10:45:10;20.25;;;10.30;;
78148;SDS011;67396;42.664;23.382;2023-04-10T10:47:41;21.70;;;11.40;;
78148;SDS011;67396;42.664;23.382;2023-04-10T10:50:10;17.80;;;9.90;;
78148;SDS011;67396;42.664;23.382;2023-04-10T10:52:40;19.38;;;9.82;;
78148;SDS011;67396;42.664;23.382;2023-04-10T10:57:52;16.40;;;8.95;;
78148;SDS011;67396;42.664;23.382;2023-04-10T11:01:04;21.63;;;11.02;;
78148;SDS011;67396;42.664;23.382;2023-04-10T11:08:16;26.48;;;12.15;;
78148;SDS011;67396;42.664;23.382;2023-04-10T11:11:01;19.13;;;10.00;;
78148;SDS011;67396;42.664;23.382;2023-04-10T11:16:43;18.25;;;9.63;;
78148;SDS011;67396;42.664;23.382;2023-04-10T11:19:09;16.45;;;8.75;;
78148;SDS011;67396;42.664;23.382;2023-04-10T11:24:23;17.27;;;9.75;;
78148;SDS011;67396;42.664;23.382;2023-04-10T11:26:48;16.35;;;8.57;;
78148;SDS011;67396;42.664;23.382;2023-04-10T11:34:21;18.50;;;9.45;;
78148;SDS011;67396;42.664;23.382;2023-04-10T11:36:47;14.77;;;8.57;;
78148;SDS011;67396;42.664;23.382;2023-04-10T11:39:13;16.60;;;9.10;;
78148;SDS011;67396;42.664;23.382;2023-04-10T11:41:43;16.15;;;9.48;;
78148;SDS011;67396;42.664;23.382;2023-04-10T11:44:11;15.52;;;8.60;;
78148;SDS011;67396;42.664;23.382;2023-04-10T11:46:53;16.25;;;9.15;;
78148;SDS011;67396;42.664;23.382;2023-04-10T11:49:19;17.67;;;9.48;;
78148;SDS011;67396;42.664;23.382;2023-04-10T11:51:47;16.33;;;8.93;;
78148;SDS011;67396;42.664;23.382;2023-04-10T11:54:14;16.23;;;8.93;;
78148;SDS011;67396;42.664;23.382;2023-04-10T11:56:45;14.23;;;8.25;;
78148;SDS011;67396;42.664;23.382;2023-04-10T11:59:25;15.43;;;7.75;;
78148;SDS011;67396;42.664;23.382;2023-04-10T12:01:50;15.05;;;9.13;;
78148;SDS011;67396;42.664;23.382;2023-04-10T12:04:24;15.98;;;8.82;;
78148;SDS011;67396;42.664;23.382;2023-04-10T12:06:50;16.65;;;9.20;;
78148;SDS011;67396;42.664;23.382;2023-04-10T12:09:20;17.42;;;7.78;;
78148;SDS011;67396;42.664;23.382;2023-04-10T12:14:15;17.88;;;9.32;;
78148;SDS011;67396;42.664;23.382;2023-04-10T12:16:42;16.42;;;8.68;;
78148;SDS011;67396;42.664;23.382;2023-04-10T12:19:09;22.67;;;10.75;;
78148;SDS011;67396;42.664;23.382;2023-04-10T12:21:35;20.60;;;9.35;;
78148;SDS011;67396;42.664;23.382;2023-04-10T12:24:02;16.65;;;9.20;;
78148;SDS011;67396;42.664;23.382;2023-04-10T12:26:33;19.30;;;9.65;;
78148;SDS011;67396;42.664;23.382;2023-04-10T12:31:34;22.33;;;10.48;;
78148;SDS011;67396;42.664;23.382;2023-04-10T12:34:16;23.38;;;11.15;;
78148;SDS011;67396;42.664;23.382;2023-04-10T12:36:50;18.63;;;10.43;;
78148;SDS011;67396;42.664;23.382;2023-04-10T12:39:43;13.50;;;7.47;;
78148;SDS011;67396;42.664;23.382;2023-04-10T12:44:59;10.00;;;4.80;;
78148;SDS011;67396;42.664;23.382;2023-04-10T12:47:27;9.02;;;5.20;;
78148;SDS011;67396;42.664;23.382;2023-04-10T12:50:14;13.80;;;6.60;;
78148;SDS011;67396;42.664;23.382;2023-04-10T12:55:43;17.75;;;8.70;;
78148;SDS011;67396;42.664;23.382;2023-04-10T12:58:22;13.38;;;7.55;;
78148;SDS011;67396;42.664;23.382;2023-04-10T13:00:52;19.35;;;9.48;;
78148;SDS011;67396;42.664;23.382;2023-04-10T13:03:24;20.98;;;10.23;;
78148;SDS011;67396;42.664;23.382;2023-04-10T13:05:50;18.73;;;9.70;;
78148;SDS011;67396;42.664;23.382;2023-04-10T13:08:20;20.55;;;11.18;;
78148;SDS011;67396;42.664;23.382;2023-04-10T13:10:46;22.35;;;11.90;;
78148;SDS011;67396;42.664;23.382;2023-04-10T13:13:13;23.23;;;12.30;;
78148;SDS011;67396;42.664;23.382;2023-04-10T13:15:39;21.48;;;9.95;;
78148;SDS011;67396;42.664;23.382;2023-04-10T13:18:08;27.63;;;10.18;;
78148;SDS011;67396;42.664;23.382;2023-04-10T13:20:37;21.52;;;10.30;;
78148;SDS011;67396;42.664;23.382;2023-04-10T13:23:04;15.15;;;9.60;;
78148;SDS011;67396;42.664;23.382;2023-04-10T13:25:31;16.23;;;9.43;;
78148;SDS011;67396;42.664;23.382;2023-04-10T13:28:01;18.38;;;8.50;;
78148;SDS011;67396;42.664;23.382;2023-04-10T13:30:28;19.63;;;10.57;;
78148;SDS011;67396;42.664;23.382;2023-04-10T13:32:53;19.80;;;9.88;;
78148;SDS011;67396;42.664;23.382;2023-04-10T13:35:37;18.13;;;9.65;;
78148;SDS011;67396;42.664;23.382;2023-04-10T13:38:04;18.58;;;9.13;;
78148;SDS011;67396;42.664;23.382;2023-04-10T13:40:48;21.60;;;9.88;;
78148;SDS011;67396;42.664;23.382;2023-04-10T13:43:14;19.85;;;10.32;;
78148;SDS011;67396;42.664;23.382;2023-04-10T13:45:52;23.85;;;10.75;;
78148;SDS011;67396;42.664;23.382;2023-04-10T13:51:08;18.50;;;10.15;;
78148;SDS011;67396;42.664;23.382;2023-04-10T13:53:36;24.00;;;10.88;;
78148;SDS011;67396;42.664;23.382;2023-04-10T13:56:17;22.10;;;11.90;;
78148;SDS011;67396;42.664;23.382;2023-04-10T13:58:45;23.05;;;11.93;;
78148;SDS011;67396;42.664;23.382;2023-04-10T14:01:14;23.05;;;12.18;;
78148;SDS011;67396;42.664;23.382;2023-04-10T14:03:41;24.35;;;11.88;;
78148;SDS011;67396;42.664;23.382;2023-04-10T14:09:12;19.98;;;10.60;;
78148;SDS011;67396;42.664;23.382;2023-04-10T14:11:38;21.27;;;11.20;;
78148;SDS011;67396;42.664;23.382;2023-04-10T14:14:24;23.05;;;11.95;;
78148;SDS011;67396;42.664;23.382;2023-04-10T14:16:56;22.85;;;11.20;;
78148;SDS011;67396;42.664;23.382;2023-04-10T14:19:29;21.55;;;10.73;;
78148;SDS011;67396;42.664;23.382;2023-04-10T14:21:55;18.42;;;9.52;;
78148;SDS011;67396;42.664;23.382;2023-04-10T14:24:22;13.77;;;5.82;;
78148;SDS011;67396;42.664;23.382;2023-04-10T14:26:53;10.27;;;5.78;;
78148;SDS011;67396;42.664;23.382;2023-04-10T14:29:46;10.10;;;4.90;;
78148;SDS011;67396;42.664;23.382;2023-04-10T14:32:38;10.27;;;5.45;;
78148;SDS011;67396;42.664;23.382;2023-04-10T14:37:32;11.80;;;6.50;;
78148;SDS011;67396;42.664;23.382;2023-04-10T14:39:57;12.65;;;7.25;;
78148;SDS011;67396;42.664;23.382;2023-04-10T14:42:25;12.55;;;7.47;;
78148;SDS011;67396;42.664;23.382;2023-04-10T14:44:51;13.73;;;7.75;;
78148;SDS011;67396;42.664;23.382;2023-04-10T14:47:19;17.30;;;6.70;;
78148;SDS011;67396;42.664;23.382;2023-04-10T14:49:47;12.95;;;6.95;;
78148;SDS011;67396;42.664;23.382;2023-04-10T14:52:13;13.88;;;7.63;;
78148;SDS011;67396;42.664;23.382;2023-04-10T14:54:38;13.80;;;7.55;;
78148;SDS011;67396;42.664;23.382;2023-04-10T14:57:03;13.18;;;7.68;;
78148;SDS011;67396;42.664;23.382;2023-04-10T14:59:29;13.95;;;7.18;;
78148;SDS011;67396;42.664;23.382;2023-04-10T15:01:55;13.63;;;7.93;;
78148;SDS011;67396;42.664;23.382;2023-04-10T15:04:21;15.07;;;8.95;;
78148;SDS011;67396;42.664;23.382;2023-04-10T15:06:46;17.08;;;8.55;;
78148;SDS011;67396;42.664;23.382;2023-04-10T15:09:11;16.60;;;9.10;;
78148;SDS011;67396;42.664;23.382;2023-04-10T15:11:37;16.92;;;9.55;;
78148;SDS011;67396;42.664;23.382;2023-04-10T15:14:02;18.60;;;9.35;;
78148;SDS011;67396;42.664;23.382;2023-04-10T15:16:28;16.73;;;9.30;;
78148;SDS011;67396;42.664;23.382;2023-04-10T15:18:54;18.02;;;9.75;;
78148;SDS011;67396;42.664;23.382;2023-04-10T15:21:21;17.48;;;9.73;;
78148;SDS011;67396;42.664;23.382;2023-04-10T15:23:46;20.92;;;11.65;;
78148;SDS011;67396;42.664;23.382;2023-04-10T15:26:12;30.27;;;11.77;;